sensor_id;sensor_type;location;lat;lon;timestamp;pressure;altitude;pressure_sealevel;temperature
70668;BMP280;58242;51.250;-1.118;2023-04-24T00:00:00;99294.50;;;13.79
70668;BMP280;58242;51.250;-1.118;2023-04-24T00:02:26;99301.78;;;13.78
70668;BMP280;58242;51.250;-1.118;2023-04-24T00:04:51;99301.34;;;13.76
70668;BMP280;58242;51.250;-1.118;2023-04-24T00:07:16;99295.59;;;13.74
70668;BMP280;58242;51.250;-1.118;2023-04-24T00:09:45;99296.38;;;13.75
70668;BMP280;58242;51.250;-1.118;2023-04-24T00:12:11;99306.69;;;13.73
70668;BMP280;58242;51.250;-1.118;2023-04-24T00:14:36;99304.75;;;13.73
70668;BMP280;58242;51.250;-1.118;2023-04-24T00:17:01;99307.47;;;13.73
70668;BMP280;58242;51.250;-1.118;2023-04-24T00:19:29;99306.69;;;13.73
70668;BMP280;58242;51.250;-1.118;2023-04-24T00:21:55;99301.31;;;13.73
70668;BMP280;58242;51.250;-1.118;2023-04-24T00:24:20;99318.19;;;13.73
70668;BMP280;58242;51.250;-1.118;2023-04-24T00:26:46;99322.78;;;13.73
70668;BMP280;58242;51.250;-1.118;2023-04-24T00:29:11;99320.09;;;13.73
70668;BMP280;58242;51.250;-1.118;2023-04-24T00:31:36;99320.88;;;13.73
70668;BMP280;58242;51.250;-1.118;2023-04-24T00:34:02;99328.94;;;13.73
70668;BMP280;58242;51.250;-1.118;2023-04-24T00:36:28;99324.69;;;13.72
70668;BMP280;58242;51.250;-1.118;2023-04-24T00:38:54;99323.16;;;13.71
70668;BMP280;58242;51.250;-1.118;2023-04-24T00:41:20;99322.75;;;13.69
70668;BMP280;58242;51.250;-1.118;2023-04-24T00:43:46;99334.59;;;13.68
70668;BMP280;58242;51.250;-1.118;2023-04-24T00:46:12;99331.88;;;13.65
70668;BMP280;58242;51.250;-1.118;2023-04-24T00:48:38;99330.69;;;13.63
70668;BMP280;58242;51.250;-1.118;2023-04-24T00:51:04;99327.94;;;13.59
70668;BMP280;58242;51.250;-1.118;2023-04-24T00:53:29;99334.03;;;13.56
70668;BMP280;58242;51.250;-1.118;2023-04-24T00:55:55;99333.28;;;13.56
70668;BMP280;58242;51.250;-1.118;2023-04-24T00:58:21;99329.75;;;13.52
70668;BMP280;58242;51.250;-1.118;2023-04-24T01:00:48;99326.63;;;13.50
70668;BMP280;58242;51.250;-1.118;2023-04-24T01:03:13;99328.13;;;13.48
70668;BMP280;58242;51.250;-1.118;2023-04-24T01:05:39;99330.38;;;13.46
70668;BMP280;58242;51.250;-1.118;2023-04-24T01:08:04;99338.81;;;13.44
70668;BMP280;58242;51.250;-1.118;2023-04-24T01:10:31;99339.16;;;13.43
70668;BMP280;58242;51.250;-1.118;2023-04-24T01:12:58;99346.09;;;13.44
70668;BMP280;58242;51.250;-1.118;2023-04-24T01:15:24;99350.75;;;13.47
70668;BMP280;58242;51.250;-1.118;2023-04-24T01:17:49;99347.34;;;13.50
70668;BMP280;58242;51.250;-1.118;2023-04-24T01:20:15;99356.59;;;13.52
70668;BMP280;58242;51.250;-1.118;2023-04-24T01:22:41;99365.44;;;13.52
70668;BMP280;58242;51.250;-1.118;2023-04-24T01:25:07;99368.47;;;13.51
70668;BMP280;58242;51.250;-1.118;2023-04-24T01:27:32;99372.28;;;13.50
70668;BMP280;58242;51.250;-1.118;2023-04-24T01:29:58;99377.63;;;13.50
70668;BMP280;58242;51.250;-1.118;2023-04-24T01:32:24;99373.47;;;13.52
70668;BMP280;58242;51.250;-1.118;2023-04-24T01:34:50;99372.03;;;13.58
70668;BMP280;58242;51.250;-1.118;2023-04-24T01:37:15;99370.19;;;13.62
70668;BMP280;58242;51.250;-1.118;2023-04-24T01:39:42;99374.00;;;13.61
70668;BMP280;58242;51.250;-1.118;2023-04-24T01:42:07;99385.13;;;13.60
70668;BMP280;58242;51.250;-1.118;2023-04-24T01:44:33;99377.69;;;13.53
70668;BMP280;58242;51.250;-1.118;2023-04-24T01:47:00;99376.13;;;13.49
70668;BMP280;58242;51.250;-1.118;2023-04-24T01:49:26;99373.72;;;13.44
70668;BMP280;58242;51.250;-1.118;2023-04-24T01:51:51;99375.56;;;13.40
70668;BMP280;58242;51.250;-1.118;2023-04-24T01:54:17;99377.03;;;13.38
70668;BMP280;58242;51.250;-1.118;2023-04-24T01:56:43;99375.84;;;13.35
70668;BMP280;58242;51.250;-1.118;2023-04-24T01:59:11;99377.41;;;13.36
70668;BMP280;58242;51.250;-1.118;2023-04-24T02:01:38;99369.34;;;13.36
70668;BMP280;58242;51.250;-1.118;2023-04-24T02:04:04;99370.59;;;13.42
70668;BMP280;58242;51.250;-1.118;2023-04-24T02:06:30;99373.00;;;13.47
70668;BMP280;58242;51.250;-1.118;2023-04-24T02:08:59;99376.22;;;13.56
70668;BMP280;58242;51.250;-1.118;2023-04-24T02:11:25;99370.53;;;13.61
70668;BMP280;58242;51.250;-1.118;2023-04-24T02:13:51;99375.28;;;13.67
70668;BMP280;58242;51.250;-1.118;2023-04-24T02:16:17;99381.09;;;13.72
70668;BMP280;58242;51.250;-1.118;2023-04-24T02:18:42;99385.00;;;13.75
70668;BMP280;58242;51.250;-1.118;2023-04-24T02:21:08;99394.22;;;13.77
70668;BMP280;58242;51.250;-1.118;2023-04-24T02:23:33;99388.16;;;13.80
70668;BMP280;58242;51.250;-1.118;2023-04-24T02:25:58;99394.81;;;13.86
70668;BMP280;58242;51.250;-1.118;2023-04-24T02:28:23;99401.00;;;13.90
70668;BMP280;58242;51.250;-1.118;2023-04-24T02:30:50;99401.47;;;13.95
70668;BMP280;58242;51.250;-1.118;2023-04-24T02:33:15;99400.38;;;14.00
70668;BMP280;58242;51.250;-1.118;2023-04-24T02:35:41;99402.78;;;14.04
70668;BMP280;58242;51.250;-1.118;2023-04-24T02:38:06;99405.53;;;14.08
70668;BMP280;58242;51.250;-1.118;2023-04-24T02:40:31;99408.59;;;14.10
70668;BMP280;58242;51.250;-1.118;2023-04-24T02:42:57;99406.69;;;14.10
70668;BMP280;58242;51.250;-1.118;2023-04-24T02:45:22;99402.09;;;14.11
70668;BMP280;58242;51.250;-1.118;2023-04-24T02:47:48;99406.69;;;14.10
70668;BMP280;58242;51.250;-1.118;2023-04-24T02:50:13;99416.31;;;14.11
70668;BMP280;58242;51.250;-1.118;2023-04-24T02:52:38;99410.16;;;14.11
70668;BMP280;58242;51.250;-1.118;2023-04-24T02:55:04;99421.69;;;14.11
70668;BMP280;58242;51.250;-1.118;2023-04-24T02:57:30;99417.88;;;14.12
70668;BMP280;58242;51.250;-1.118;2023-04-24T02:59:55;99430.94;;;14.14
70668;BMP280;58242;51.250;-1.118;2023-04-24T03:02:20;99437.47;;;14.13
70668;BMP280;58242;51.250;-1.118;2023-04-24T03:04:46;99435.91;;;14.12
70668;BMP280;58242;51.250;-1.118;2023-04-24T03:07:13;99441.63;;;14.10
70668;BMP280;58242;51.250;-1.118;2023-04-24T03:09:39;99441.25;;;14.08
70668;BMP280;58242;51.250;-1.118;2023-04-24T03:12:05;99448.09;;;14.06
70668;BMP280;58242;51.250;-1.118;2023-04-24T03:14:30;99440.41;;;14.04
70668;BMP280;58242;51.250;-1.118;2023-04-24T03:16:56;99440.75;;;14.03
70668;BMP280;58242;51.250;-1.118;2023-04-24T03:19:21;99450.66;;;13.99
70668;BMP280;58242;51.250;-1.118;2023-04-24T03:21:47;99449.00;;;13.91
70668;BMP280;58242;51.250;-1.118;2023-04-24T03:24:12;99456.16;;;13.84
70668;BMP280;58242;51.250;-1.118;2023-04-24T03:26:38;99452.56;;;13.77
70668;BMP280;58242;51.250;-1.118;2023-04-24T03:29:03;99463.94;;;13.70
70668;BMP280;58242;51.250;-1.118;2023-04-24T03:31:28;99460.44;;;13.67
70668;BMP280;58242;51.250;-1.118;2023-04-24T03:33:54;99458.03;;;13.62
70668;BMP280;58242;51.250;-1.118;2023-04-24T03:36:19;99462.16;;;13.56
70668;BMP280;58242;51.250;-1.118;2023-04-24T03:38:45;99464.34;;;13.51
70668;BMP280;58242;51.250;-1.118;2023-04-24T03:41:10;99468.81;;;13.43
70668;BMP280;58242;51.250;-1.118;2023-04-24T03:43:37;99477.13;;;13.38
70668;BMP280;58242;51.250;-1.118;2023-04-24T03:46:02;99476.28;;;13.34
70668;BMP280;58242;51.250;-1.118;2023-04-24T03:48:28;99479.34;;;13.33
70668;BMP280;58242;51.250;-1.118;2023-04-24T03:50:53;99475.88;;;13.33
70668;BMP280;58242;51.250;-1.118;2023-04-24T03:53:18;99473.53;;;13.31
70668;BMP280;58242;51.250;-1.118;2023-04-24T03:55:44;99465.44;;;13.28
70668;BMP280;58242;51.250;-1.118;2023-04-24T03:58:10;99472.22;;;13.22
70668;BMP280;58242;51.250;-1.118;2023-04-24T04:00:36;99483.22;;;13.17
70668;BMP280;58242;51.250;-1.118;2023-04-24T04:03:02;99487.69;;;13.10
70668;BMP280;58242;51.250;-1.118;2023-04-24T04:05:28;99485.63;;;13.03
70668;BMP280;58242;51.250;-1.118;2023-04-24T04:07:53;99483.56;;;12.97
70668;BMP280;58242;51.250;-1.118;2023-04-24T04:10:18;99478.44;;;12.89
70668;BMP280;58242;51.250;-1.118;2023-04-24T04:12:44;99480.94;;;12.82
70668;BMP280;58242;51.250;-1.118;2023-04-24T04:15:09;99489.63;;;12.76
70668;BMP280;58242;51.250;-1.118;2023-04-24T04:17:35;99493.72;;;12.70
70668;BMP280;58242;51.250;-1.118;2023-04-24T04:20:00;99487.06;;;12.64
70668;BMP280;58242;51.250;-1.118;2023-04-24T04:22:26;99496.91;;;12.60
70668;BMP280;58242;51.250;-1.118;2023-04-24T04:24:51;99481.44;;;12.54
70668;BMP280;58242;51.250;-1.118;2023-04-24T04:27:17;99484.38;;;12.49
70668;BMP280;58242;51.250;-1.118;2023-04-24T04:29:44;99487.75;;;12.46
70668;BMP280;58242;51.250;-1.118;2023-04-24T04:32:09;99481.09;;;12.40
70668;BMP280;58242;51.250;-1.118;2023-04-24T04:34:34;99492.50;;;12.37
70668;BMP280;58242;51.250;-1.118;2023-04-24T04:37:02;99495.13;;;12.34
70668;BMP280;58242;51.250;-1.118;2023-04-24T04:39:27;99497.72;;;12.31
70668;BMP280;58242;51.250;-1.118;2023-04-24T04:41:53;99493.41;;;12.26
70668;BMP280;58242;51.250;-1.118;2023-04-24T04:44:19;99493.31;;;12.23
70668;BMP280;58242;51.250;-1.118;2023-04-24T04:46:44;99505.50;;;12.20
70668;BMP280;58242;51.250;-1.118;2023-04-24T04:49:09;99503.16;;;12.19
70668;BMP280;58242;51.250;-1.118;2023-04-24T04:51:36;99505.44;;;12.17
70668;BMP280;58242;51.250;-1.118;2023-04-24T04:54:01;99504.19;;;12.14
70668;BMP280;58242;51.250;-1.118;2023-04-24T04:56:27;99502.63;;;12.13
70668;BMP280;58242;51.250;-1.118;2023-04-24T04:58:52;99501.44;;;12.11
70668;BMP280;58242;51.250;-1.118;2023-04-24T05:01:18;99505.59;;;12.09
70668;BMP280;58242;51.250;-1.118;2023-04-24T05:03:43;99504.03;;;12.08
70668;BMP280;58242;51.250;-1.118;2023-04-24T05:06:09;99501.69;;;12.06
70668;BMP280;58242;51.250;-1.118;2023-04-24T05:08:35;99515.88;;;12.07
70668;BMP280;58242;51.250;-1.118;2023-04-24T05:11:00;99520.03;;;12.04
70668;BMP280;58242;51.250;-1.118;2023-04-24T05:13:25;99522.25;;;12.02
70668;BMP280;58242;51.250;-1.118;2023-04-24T05:15:51;99518.81;;;12.02
70668;BMP280;58242;51.250;-1.118;2023-04-24T05:18:16;99530.97;;;11.99
70668;BMP280;58242;51.250;-1.118;2023-04-24T05:20:42;99537.44;;;11.98
70668;BMP280;58242;51.250;-1.118;2023-04-24T05:23:09;99545.84;;;11.97
70668;BMP280;58242;51.250;-1.118;2023-04-24T05:25:34;99548.09;;;11.95
70668;BMP280;58242;51.250;-1.118;2023-04-24T05:28:01;99539.28;;;11.95
70668;BMP280;58242;51.250;-1.118;2023-04-24T05:30:27;99541.19;;;11.94
70668;BMP280;58242;51.250;-1.118;2023-04-24T05:32:52;99547.34;;;11.95
70668;BMP280;58242;51.250;-1.118;2023-04-24T05:35:17;99541.97;;;11.95
70668;BMP280;58242;51.250;-1.118;2023-04-24T05:37:43;99546.28;;;11.99
70668;BMP280;58242;51.250;-1.118;2023-04-24T05:40:10;99550.97;;;12.02
70668;BMP280;58242;51.250;-1.118;2023-04-24T05:42:35;99548.38;;;12.05
70668;BMP280;58242;51.250;-1.118;2023-04-24T05:45:00;99547.69;;;12.08
70668;BMP280;58242;51.250;-1.118;2023-04-24T05:47:26;99551.56;;;12.11
70668;BMP280;58242;51.250;-1.118;2023-04-24T05:49:51;99553.53;;;12.13
70668;BMP280;58242;51.250;-1.118;2023-04-24T05:52:17;99544.84;;;12.16
70668;BMP280;58242;51.250;-1.118;2023-04-24T05:54:42;99543.81;;;12.21
70668;BMP280;58242;51.250;-1.118;2023-04-24T05:57:07;99543.88;;;12.24
70668;BMP280;58242;51.250;-1.118;2023-04-24T05:59:35;99548.28;;;12.32
70668;BMP280;58242;51.250;-1.118;2023-04-24T06:02:00;99556.06;;;12.37
70668;BMP280;58242;51.250;-1.118;2023-04-24T06:04:25;99562.38;;;12.44
70668;BMP280;58242;51.250;-1.118;2023-04-24T06:06:51;99574.03;;;12.51
70668;BMP280;58242;51.250;-1.118;2023-04-24T06:09:21;99586.84;;;12.58
70668;BMP280;58242;51.250;-1.118;2023-04-24T06:11:46;99583.25;;;12.66
70668;BMP280;58242;51.250;-1.118;2023-04-24T06:14:11;99590.31;;;12.73
70668;BMP280;58242;51.250;-1.118;2023-04-24T06:16:37;99584.00;;;12.81
70668;BMP280;58242;51.250;-1.118;2023-04-24T06:19:04;99583.78;;;12.89
70668;BMP280;58242;51.250;-1.118;2023-04-24T06:21:29;99594.34;;;12.98
70668;BMP280;58242;51.250;-1.118;2023-04-24T06:23:55;99589.19;;;13.08
70668;BMP280;58242;51.250;-1.118;2023-04-24T06:26:21;99587.19;;;13.20
70668;BMP280;58242;51.250;-1.118;2023-04-24T06:28:47;99584.44;;;13.35
70668;BMP280;58242;51.250;-1.118;2023-04-24T06:31:12;99584.38;;;13.50
70668;BMP280;58242;51.250;-1.118;2023-04-24T06:33:37;99587.00;;;13.65
70668;BMP280;58242;51.250;-1.118;2023-04-24T06:36:03;99585.03;;;13.81
70668;BMP280;58242;51.250;-1.118;2023-04-24T06:38:29;99590.78;;;13.98
70668;BMP280;58242;51.250;-1.118;2023-04-24T06:40:54;99580.97;;;14.08
70668;BMP280;58242;51.250;-1.118;2023-04-24T06:43:20;99581.59;;;14.20
70668;BMP280;58242;51.250;-1.118;2023-04-24T06:45:45;99582.56;;;14.31
70668;BMP280;58242;51.250;-1.118;2023-04-24T06:48:12;99578.91;;;14.42
70668;BMP280;58242;51.250;-1.118;2023-04-24T06:50:37;99575.97;;;14.51
70668;BMP280;58242;51.250;-1.118;2023-04-24T06:53:02;99587.84;;;14.71
70668;BMP280;58242;51.250;-1.118;2023-04-24T06:55:28;99578.75;;;15.05
70668;BMP280;58242;51.250;-1.118;2023-04-24T06:57:53;99588.19;;;15.46
70668;BMP280;58242;51.250;-1.118;2023-04-24T07:00:18;99593.44;;;15.93
70668;BMP280;58242;51.250;-1.118;2023-04-24T07:02:44;99597.84;;;16.46
70668;BMP280;58242;51.250;-1.118;2023-04-24T07:05:09;99594.06;;;17.00
70668;BMP280;58242;51.250;-1.118;2023-04-24T07:07:34;99594.38;;;17.51
70668;BMP280;58242;51.250;-1.118;2023-04-24T07:10:03;99591.91;;;18.05
70668;BMP280;58242;51.250;-1.118;2023-04-24T07:12:29;99599.00;;;18.64
70668;BMP280;58242;51.250;-1.118;2023-04-24T07:14:54;99596.66;;;19.20
70668;BMP280;58242;51.250;-1.118;2023-04-24T07:17:20;99591.88;;;19.72
70668;BMP280;58242;51.250;-1.118;2023-04-24T07:19:46;99597.44;;;20.25
70668;BMP280;58242;51.250;-1.118;2023-04-24T07:22:11;99607.59;;;20.74
70668;BMP280;58242;51.250;-1.118;2023-04-24T07:24:42;99601.75;;;21.25
70668;BMP280;58242;51.250;-1.118;2023-04-24T07:27:08;99587.19;;;21.74
70668;BMP280;58242;51.250;-1.118;2023-04-24T07:29:33;99597.94;;;22.17
70668;BMP280;58242;51.250;-1.118;2023-04-24T07:31:58;99609.16;;;22.48
70668;BMP280;58242;51.250;-1.118;2023-04-24T07:34:24;99606.47;;;22.45
70668;BMP280;58242;51.250;-1.118;2023-04-24T07:36:49;99609.81;;;22.29
70668;BMP280;58242;51.250;-1.118;2023-04-24T07:39:15;99603.84;;;22.12
70668;BMP280;58242;51.250;-1.118;2023-04-24T07:41:40;99608.38;;;21.93
70668;BMP280;58242;51.250;-1.118;2023-04-24T07:44:05;99605.13;;;21.68
70668;BMP280;58242;51.250;-1.118;2023-04-24T07:46:31;99612.84;;;21.41
70668;BMP280;58242;51.250;-1.118;2023-04-24T07:48:56;99614.66;;;21.14
70668;BMP280;58242;51.250;-1.118;2023-04-24T07:51:22;99607.13;;;20.86
70668;BMP280;58242;51.250;-1.118;2023-04-24T07:53:48;99607.34;;;20.55
70668;BMP280;58242;51.250;-1.118;2023-04-24T07:56:13;99609.06;;;20.25
70668;BMP280;58242;51.250;-1.118;2023-04-24T07:58:38;99615.81;;;19.97
70668;BMP280;58242;51.250;-1.118;2023-04-24T08:01:04;99619.00;;;19.72
70668;BMP280;58242;51.250;-1.118;2023-04-24T08:03:29;99631.44;;;19.49
70668;BMP280;58242;51.250;-1.118;2023-04-24T08:05:55;99631.88;;;19.27
70668;BMP280;58242;51.250;-1.118;2023-04-24T08:08:21;99630.72;;;19.08
70668;BMP280;58242;51.250;-1.118;2023-04-24T08:10:47;99633.06;;;18.89
70668;BMP280;58242;51.250;-1.118;2023-04-24T08:13:12;99639.22;;;18.66
70668;BMP280;58242;51.250;-1.118;2023-04-24T08:15:37;99639.97;;;18.49
70668;BMP280;58242;51.250;-1.118;2023-04-24T08:18:03;99631.44;;;18.37
70668;BMP280;58242;51.250;-1.118;2023-04-24T08:20:28;99639.91;;;18.32
70668;BMP280;58242;51.250;-1.118;2023-04-24T08:22:53;99637.59;;;18.34
70668;BMP280;58242;51.250;-1.118;2023-04-24T08:25:20;99632.22;;;18.44
70668;BMP280;58242;51.250;-1.118;2023-04-24T08:27:45;99633.78;;;18.62
70668;BMP280;58242;51.250;-1.118;2023-04-24T08:30:11;99635.75;;;18.85
70668;BMP280;58242;51.250;-1.118;2023-04-24T08:32:36;99638.50;;;19.02
70668;BMP280;58242;51.250;-1.118;2023-04-24T08:35:02;99635.75;;;19.13
70668;BMP280;58242;51.250;-1.118;2023-04-24T08:37:28;99631.13;;;19.17
70668;BMP280;58242;51.250;-1.118;2023-04-24T08:39:53;99628.41;;;19.17
70668;BMP280;58242;51.250;-1.118;2023-04-24T08:42:19;99629.56;;;19.19
70668;BMP280;58242;51.250;-1.118;2023-04-24T08:44:47;99623.38;;;19.22
70668;BMP280;58242;51.250;-1.118;2023-04-24T08:47:14;99627.59;;;19.26
70668;BMP280;58242;51.250;-1.118;2023-04-24T08:49:40;99631.50;;;19.25
70668;BMP280;58242;51.250;-1.118;2023-04-24T08:52:05;99625.66;;;19.30
70668;BMP280;58242;51.250;-1.118;2023-04-24T08:54:33;99623.72;;;19.41
70668;BMP280;58242;51.250;-1.118;2023-04-24T08:56:59;99622.53;;;19.62
70668;BMP280;58242;51.250;-1.118;2023-04-24T08:59:26;99624.66;;;20.11
70668;BMP280;58242;51.250;-1.118;2023-04-24T09:01:52;99620.75;;;20.79
70668;BMP280;58242;51.250;-1.118;2023-04-24T09:04:20;99610.56;;;21.68
70668;BMP280;58242;51.250;-1.118;2023-04-24T09:06:48;99619.31;;;22.96
70668;BMP280;58242;51.250;-1.118;2023-04-24T09:09:16;99610.94;;;24.45
70668;BMP280;58242;51.250;-1.118;2023-04-24T09:11:43;99602.25;;;25.99
70668;BMP280;58242;51.250;-1.118;2023-04-24T09:14:09;99609.50;;;27.06
70668;BMP280;58242;51.250;-1.118;2023-04-24T09:16:35;99602.88;;;27.48
70668;BMP280;58242;51.250;-1.118;2023-04-24T09:19:00;99597.50;;;27.45
70668;BMP280;58242;51.250;-1.118;2023-04-24T09:21:31;99597.03;;;27.26
70668;BMP280;58242;51.250;-1.118;2023-04-24T09:23:59;99603.00;;;27.12
70668;BMP280;58242;51.250;-1.118;2023-04-24T09:26:25;99591.47;;;27.50
70668;BMP280;58242;51.250;-1.118;2023-04-24T09:28:50;99606.00;;;28.34
70668;BMP280;58242;51.250;-1.118;2023-04-24T09:31:19;99622.63;;;28.90
70668;BMP280;58242;51.250;-1.118;2023-04-24T09:33:59;99626.16;;;28.90
70668;BMP280;58242;51.250;-1.118;2023-04-24T09:36:32;99626.16;;;28.61
70668;BMP280;58242;51.250;-1.118;2023-04-24T09:39:02;99633.84;;;28.15
70668;BMP280;58242;51.250;-1.118;2023-04-24T09:41:28;99637.88;;;27.69
70668;BMP280;58242;51.250;-1.118;2023-04-24T09:43:55;99645.00;;;27.21
70668;BMP280;58242;51.250;-1.118;2023-04-24T09:46:20;99638.44;;;26.70
70668;BMP280;58242;51.250;-1.118;2023-04-24T09:48:49;99649.09;;;26.16
70668;BMP280;58242;51.250;-1.118;2023-04-24T09:51:14;99650.34;;;25.72
70668;BMP280;58242;51.250;-1.118;2023-04-24T09:53:45;99651.72;;;25.21
70668;BMP280;58242;51.250;-1.118;2023-04-24T09:56:11;99651.31;;;24.72
70668;BMP280;58242;51.250;-1.118;2023-04-24T09:58:39;99646.03;;;24.28
70668;BMP280;58242;51.250;-1.118;2023-04-24T10:01:05;99661.72;;;23.86
70668;BMP280;58242;51.250;-1.118;2023-04-24T10:03:31;99657.75;;;23.49
70668;BMP280;58242;51.250;-1.118;2023-04-24T10:06:03;99661.50;;;23.14
70668;BMP280;58242;51.250;-1.118;2023-04-24T10:08:35;99665.47;;;22.83
70668;BMP280;58242;51.250;-1.118;2023-04-24T10:11:01;99664.19;;;22.65
70668;BMP280;58242;51.250;-1.118;2023-04-24T10:13:27;99662.81;;;22.51
70668;BMP280;58242;51.250;-1.118;2023-04-24T10:15:53;99658.69;;;22.40
70668;BMP280;58242;51.250;-1.118;2023-04-24T10:18:20;99668.56;;;22.30
70668;BMP280;58242;51.250;-1.118;2023-04-24T10:20:47;99662.81;;;22.22
70668;BMP280;58242;51.250;-1.118;2023-04-24T10:23:12;99664.81;;;22.18
70668;BMP280;58242;51.250;-1.118;2023-04-24T10:25:37;99666.75;;;22.17
70668;BMP280;58242;51.250;-1.118;2023-04-24T10:28:03;99661.31;;;22.17
70668;BMP280;58242;51.250;-1.118;2023-04-24T10:30:32;99664.44;;;22.19
70668;BMP280;58242;51.250;-1.118;2023-04-24T10:33:03;99667.91;;;22.20
70668;BMP280;58242;51.250;-1.118;2023-04-24T10:35:31;99666.31;;;22.22
70668;BMP280;58242;51.250;-1.118;2023-04-24T10:38:01;99674.00;;;22.30
70668;BMP280;58242;51.250;-1.118;2023-04-24T10:40:33;99672.19;;;22.50
70668;BMP280;58242;51.250;-1.118;2023-04-24T10:42:59;99666.72;;;22.79
70668;BMP280;58242;51.250;-1.118;2023-04-24T10:45:27;99662.34;;;23.07
70668;BMP280;58242;51.250;-1.118;2023-04-24T10:48:01;99661.97;;;23.53
70668;BMP280;58242;51.250;-1.118;2023-04-24T10:50:48;99663.31;;;24.06
70668;BMP280;58242;51.250;-1.118;2023-04-24T10:53:17;99652.66;;;24.30
70668;BMP280;58242;51.250;-1.118;2023-04-24T10:55:46;99656.09;;;24.69
70668;BMP280;58242;51.250;-1.118;2023-04-24T10:58:12;99661.94;;;25.17
70668;BMP280;58242;51.250;-1.118;2023-04-24T11:00:39;99660.81;;;25.46
70668;BMP280;58242;51.250;-1.118;2023-04-24T11:03:06;99653.00;;;25.60
70668;BMP280;58242;51.250;-1.118;2023-04-24T11:05:51;99663.44;;;25.80
70668;BMP280;58242;51.250;-1.118;2023-04-24T11:11:21;99663.28;;;25.56
70668;BMP280;58242;51.250;-1.118;2023-04-24T11:16:38;99668.25;;;25.45
70668;BMP280;58242;51.250;-1.118;2023-04-24T11:21:45;99666.22;;;25.49
70668;BMP280;58242;51.250;-1.118;2023-04-24T11:26:48;99657.81;;;25.40
70668;BMP280;58242;51.250;-1.118;2023-04-24T11:29:13;99653.41;;;25.31
70668;BMP280;58242;51.250;-1.118;2023-04-24T11:31:40;99647.59;;;25.13
70668;BMP280;58242;51.250;-1.118;2023-04-24T11:34:13;99640.38;;;24.88
70668;BMP280;58242;51.250;-1.118;2023-04-24T11:36:42;99635.44;;;24.68
70668;BMP280;58242;51.250;-1.118;2023-04-24T11:39:07;99638.09;;;24.52
70668;BMP280;58242;51.250;-1.118;2023-04-24T11:41:33;99625.94;;;24.37
70668;BMP280;58242;51.250;-1.118;2023-04-24T11:43:58;99634.34;;;24.27
70668;BMP280;58242;51.250;-1.118;2023-04-24T11:46:27;99629.41;;;24.22
70668;BMP280;58242;51.250;-1.118;2023-04-24T11:48:53;99615.38;;;24.20
70668;BMP280;58242;51.250;-1.118;2023-04-24T11:51:18;99623.69;;;24.33
70668;BMP280;58242;51.250;-1.118;2023-04-24T11:53:43;99622.63;;;24.65
70668;BMP280;58242;51.250;-1.118;2023-04-24T11:56:09;99628.94;;;25.08
70668;BMP280;58242;51.250;-1.118;2023-04-24T11:58:38;99627.22;;;25.45
70668;BMP280;58242;51.250;-1.118;2023-04-24T12:01:04;99635.06;;;25.59
70668;BMP280;58242;51.250;-1.118;2023-04-24T12:03:30;99642.00;;;25.91
70668;BMP280;58242;51.250;-1.118;2023-04-24T12:06:08;99617.66;;;26.21
70668;BMP280;58242;51.250;-1.118;2023-04-24T12:08:34;99620.50;;;26.17
70668;BMP280;58242;51.250;-1.118;2023-04-24T12:11:00;99619.06;;;26.13
70668;BMP280;58242;51.250;-1.118;2023-04-24T12:13:26;99630.44;;;25.99
70668;BMP280;58242;51.250;-1.118;2023-04-24T12:15:51;99618.34;;;25.97
70668;BMP280;58242;51.250;-1.118;2023-04-24T12:18:17;99612.81;;;26.12
70668;BMP280;58242;51.250;-1.118;2023-04-24T12:20:42;99610.34;;;26.54
70668;BMP280;58242;51.250;-1.118;2023-04-24T12:23:07;99608.34;;;27.28
70668;BMP280;58242;51.250;-1.118;2023-04-24T12:25:33;99603.22;;;27.50
70668;BMP280;58242;51.250;-1.118;2023-04-24T12:30:28;99608.16;;;27.10
70668;BMP280;58242;51.250;-1.118;2023-04-24T12:32:54;99604.34;;;26.83
70668;BMP280;58242;51.250;-1.118;2023-04-24T12:35:22;99604.78;;;26.45
70668;BMP280;58242;51.250;-1.118;2023-04-24T12:37:47;99597.88;;;26.01
70668;BMP280;58242;51.250;-1.118;2023-04-24T12:40:13;99604.59;;;25.57
70668;BMP280;58242;51.250;-1.118;2023-04-24T12:42:47;99610.47;;;25.12
70668;BMP280;58242;51.250;-1.118;2023-04-24T12:45:13;99609.63;;;24.69
70668;BMP280;58242;51.250;-1.118;2023-04-24T12:47:39;99617.47;;;24.32
70668;BMP280;58242;51.250;-1.118;2023-04-24T12:50:10;99628.34;;;23.98
70668;BMP280;58242;51.250;-1.118;2023-04-24T12:52:36;99652.88;;;23.60
70668;BMP280;58242;51.250;-1.118;2023-04-24T12:55:02;99657.28;;;23.09
70668;BMP280;58242;51.250;-1.118;2023-04-24T12:57:29;99657.91;;;22.39
70668;BMP280;58242;51.250;-1.118;2023-04-24T12:59:56;99659.50;;;21.72
70668;BMP280;58242;51.250;-1.118;2023-04-24T13:02:23;99651.50;;;21.19
70668;BMP280;58242;51.250;-1.118;2023-04-24T13:04:48;99663.44;;;20.78
70668;BMP280;58242;51.250;-1.118;2023-04-24T13:07:14;99660.16;;;20.47
70668;BMP280;58242;51.250;-1.118;2023-04-24T13:09:41;99666.47;;;20.21
70668;BMP280;58242;51.250;-1.118;2023-04-24T13:12:07;99654.97;;;19.96
70668;BMP280;58242;51.250;-1.118;2023-04-24T13:14:33;99652.72;;;19.78
70668;BMP280;58242;51.250;-1.118;2023-04-24T13:16:58;99665.53;;;19.60
70668;BMP280;58242;51.250;-1.118;2023-04-24T13:19:27;99659.72;;;19.45
70668;BMP280;58242;51.250;-1.118;2023-04-24T13:21:54;99674.84;;;19.32
70668;BMP280;58242;51.250;-1.118;2023-04-24T13:24:20;99663.63;;;19.17
70668;BMP280;58242;51.250;-1.118;2023-04-24T13:26:45;99660.94;;;19.03
70668;BMP280;58242;51.250;-1.118;2023-04-24T13:29:11;99665.56;;;18.89
70668;BMP280;58242;51.250;-1.118;2023-04-24T13:31:36;99660.13;;;18.85
70668;BMP280;58242;51.250;-1.118;2023-04-24T13:34:02;99663.25;;;18.87
70668;BMP280;58242;51.250;-1.118;2023-04-24T13:36:28;99660.53;;;18.87
70668;BMP280;58242;51.250;-1.118;2023-04-24T13:38:54;99661.69;;;18.86
70668;BMP280;58242;51.250;-1.118;2023-04-24T13:41:19;99657.06;;;18.87
70668;BMP280;58242;51.250;-1.118;2023-04-24T13:43:44;99664.78;;;18.88
70668;BMP280;58242;51.250;-1.118;2023-04-24T13:46:10;99653.94;;;18.88
70668;BMP280;58242;51.250;-1.118;2023-04-24T13:48:35;99676.38;;;18.92
70668;BMP280;58242;51.250;-1.118;2023-04-24T13:51:00;99670.59;;;18.97
70668;BMP280;58242;51.250;-1.118;2023-04-24T13:53:26;99667.88;;;19.01
70668;BMP280;58242;51.250;-1.118;2023-04-24T13:55:51;99665.56;;;19.06
70668;BMP280;58242;51.250;-1.118;2023-04-24T13:58:16;99660.53;;;19.11
70668;BMP280;58242;51.250;-1.118;2023-04-24T14:00:42;99662.47;;;19.11
70668;BMP280;58242;51.250;-1.118;2023-04-24T14:03:07;99669.06;;;19.06